createdAt,value
2018-10-07T00:01:32.985Z,100379.47
2018-10-07T00:04:03.106Z,100373.86
2018-10-07T00:06:32.052Z,100373.55
2018-10-07T00:09:01.960Z,100368.34
2018-10-07T00:11:31.623Z,100365.95
2018-10-07T00:14:01.415Z,100362.21
2018-10-07T00:16:31.740Z,100363.38
2018-10-07T00:19:01.524Z,100367.51
2018-10-07T00:21:30.940Z,100355.61
2018-10-07T00:24:01.167Z,100358.52
2018-10-07T00:26:30.534Z,100362.72
2018-10-07T00:29:01.404Z,100363.10
2018-10-07T00:31:31.682Z,100365.06
2018-10-07T00:34:03.107Z,100364.07
2018-10-07T00:36:33.391Z,100356.98
2018-10-07T00:39:03.761Z,100356.97
2018-10-07T00:41:34.335Z,100353.67
2018-10-07T00:44:03.973Z,100356.66
2018-10-07T00:46:35.463Z,100352.41
2018-10-07T00:49:05.863Z,100359.05
2018-10-07T00:51:36.496Z,100358.75
2018-10-07T00:54:05.583Z,100359.66
2018-10-07T00:56:34.619Z,100359.05
2018-10-07T00:59:04.191Z,100352.48
2018-10-07T01:01:33.590Z,100361.51
2018-10-07T01:04:03.910Z,100360.90
2018-10-07T01:06:33.013Z,100360.02
2018-10-07T01:09:02.367Z,100355.45
2018-10-07T01:11:32.402Z,100347.69
2018-10-07T01:14:01.437Z,100352.16
2018-10-07T01:16:30.616Z,100357.97
2018-10-07T01:18:59.713Z,100351.53
2018-10-07T01:21:28.757Z,100352.30
2018-10-07T01:23:59.716Z,100348.59
2018-10-07T01:26:29.665Z,100345.91
2018-10-07T01:28:59.166Z,100346.73
2018-10-07T01:31:29.965Z,100346.22
2018-10-07T01:34:00.159Z,100344.50
2018-10-07T01:36:29.213Z,100349.27
2018-10-07T01:38:58.792Z,100346.13
2018-10-07T01:41:28.338Z,100343.95
2018-10-07T01:43:58.499Z,100345.39
2018-10-07T01:46:28.082Z,100344.99
2018-10-07T01:48:57.118Z,100344.78
2018-10-07T01:51:26.416Z,100352.70
2018-10-07T01:53:56.669Z,100351.35
2018-10-07T01:56:27.208Z,100354.22
2018-10-07T01:58:56.173Z,100356.76
2018-10-07T02:01:26.564Z,100353.64
2018-10-07T02:03:55.483Z,100361.70
2018-10-07T02:06:26.282Z,100355.20
2018-10-07T02:08:55.607Z,100360.80
2018-10-07T02:11:24.841Z,100363.78
2018-10-07T02:13:55.072Z,100366.78
2018-10-07T02:16:24.478Z,100368.44
2018-10-07T02:18:54.275Z,100368.44
2018-10-07T02:21:24.548Z,100371.34
2018-10-07T02:23:53.411Z,100378.58
2018-10-07T02:26:24.124Z,100385.31
2018-10-07T02:28:53.843Z,100383.88
2018-10-07T02:31:23.790Z,100385.22
2018-10-07T02:33:53.657Z,100384.39
2018-10-07T02:36:22.371Z,100389.92
2018-10-07T02:38:51.136Z,100398.72
2018-10-07T02:41:19.977Z,100396.86
2018-10-07T02:43:49.401Z,100397.34
2018-10-07T02:46:18.217Z,100404.83
2018-10-07T02:48:46.991Z,100403.72
2018-10-07T02:51:16.031Z,100413.74
2018-10-07T02:53:45.180Z,100409.98
2018-10-07T02:56:14.363Z,100413.80
2018-10-07T02:58:43.270Z,100411.94
2018-10-07T03:01:12.360Z,100406.05
2018-10-07T03:03:41.993Z,100410.29
2018-10-07T03:06:12.064Z,100408.36
2018-10-07T03:08:41.463Z,100410.23
2018-10-07T03:11:11.318Z,100409.70
2018-10-07T03:13:42.133Z,100409.16
2018-10-07T03:16:12.483Z,100414.06
2018-10-07T03:18:42.710Z,100415.23
2018-10-07T03:21:12.209Z,100417.45
2018-10-07T03:23:41.840Z,100421.48
2018-10-07T03:26:11.412Z,100430.31
2018-10-07T03:28:41.446Z,100430.20
2018-10-07T03:31:11.585Z,100422.73
2018-10-07T03:33:41.327Z,100426.66
2018-10-07T03:36:10.933Z,100432.34
2018-10-07T03:38:41.030Z,100444.81
2018-10-07T03:41:10.254Z,100451.83
2018-10-07T03:43:40.633Z,100449.56
2018-10-07T03:46:09.532Z,100461.08
2018-10-07T03:48:39.323Z,100457.32
2018-10-07T03:51:08.941Z,100465.11
2018-10-07T03:53:38.356Z,100453.22
2018-10-07T03:56:08.602Z,100462.94
2018-10-07T03:58:37.754Z,100469.55
2018-10-07T04:01:08.608Z,100475.03
2018-10-07T04:03:38.192Z,100480.71
2018-10-07T04:06:07.303Z,100479.44
2018-10-07T04:08:38.113Z,100478.09
2018-10-07T04:11:07.743Z,100483.78
2018-10-07T04:13:37.469Z,100480.27
2018-10-07T04:16:07.358Z,100484.09
2018-10-07T04:18:36.627Z,100477.68
2018-10-07T04:21:06.480Z,100483.47
2018-10-07T04:23:37.149Z,100495.56
2018-10-07T04:26:06.883Z,100493.08
2018-10-07T04:28:36.696Z,100488.23
2018-10-07T04:31:07.720Z,100491.74
2018-10-07T04:33:38.964Z,100488.23
2018-10-07T04:36:08.156Z,100487.95
2018-10-07T04:38:37.350Z,100487.95
2018-10-07T04:41:06.739Z,100482.85
2018-10-07T04:43:37.108Z,100494.16
2018-10-07T04:46:07.063Z,100488.23
2018-10-07T04:48:37.131Z,100486.30
2018-10-07T04:51:07.369Z,100490.12
2018-10-07T04:53:36.945Z,100499.29
2018-10-07T04:56:06.506Z,100509.62
2018-10-07T04:58:35.485Z,100520.69
2018-10-07T05:01:06.142Z,100519.13
2018-10-07T05:03:35.727Z,100520.55
2018-10-07T05:06:05.051Z,100523.55
2018-10-07T05:08:35.030Z,100526.86
2018-10-07T05:11:05.268Z,100534.71
2018-10-07T05:13:40.902Z,100530.98
2018-10-07T05:16:12.118Z,100538.81
2018-10-07T05:18:42.136Z,100546.05
2018-10-07T05:21:11.377Z,100549.26
2018-10-07T05:23:41.997Z,100561.08
2018-10-07T05:26:12.175Z,100570.17
2018-10-07T05:28:41.232Z,100569.14
2018-10-07T05:31:10.825Z,100576.90
2018-10-07T05:33:41.094Z,100575.23
2018-10-07T05:36:10.115Z,100575.75
2018-10-07T05:38:40.183Z,100578.23
2018-10-07T05:41:09.235Z,100582.79
2018-10-07T05:43:38.079Z,100594.37
2018-10-07T05:46:08.228Z,100592.51
2018-10-07T05:48:39.874Z,100598.40
2018-10-07T05:51:09.584Z,100608.41
2018-10-07T05:53:40.371Z,100612.74
2018-10-07T05:56:09.874Z,100623.40
2018-10-07T05:58:40.139Z,100632.36
2018-10-07T06:01:12.984Z,100632.98
2018-10-07T06:03:53.338Z,100644.98
2018-10-07T06:06:22.531Z,100643.20
2018-10-07T06:08:51.682Z,100641.16
2018-10-07T06:11:20.927Z,100659.27
2018-10-07T06:13:50.032Z,100656.95
2018-10-07T06:16:20.006Z,100650.37
2018-10-07T06:18:49.708Z,100664.92
2018-10-07T06:21:19.216Z,100667.09
2018-10-07T06:23:49.687Z,100683.55
2018-10-07T06:26:20.478Z,100685.72
2018-10-07T06:28:49.954Z,100707.86
2018-10-07T06:31:18.991Z,100715.20
2018-10-07T06:33:49.045Z,100720.99
2018-10-07T06:36:18.451Z,100727.53
2018-10-07T06:38:47.573Z,100730.91
2018-10-07T06:41:17.056Z,100732.91
2018-10-07T06:43:46.629Z,100735.14
2018-10-07T06:46:16.457Z,100741.66
2018-10-07T06:48:46.316Z,100744.48
2018-10-07T06:51:15.341Z,100747.17
2018-10-07T06:53:45.005Z,100755.23
2018-10-07T06:56:14.235Z,100763.59
2018-10-07T06:58:43.279Z,100768.77
2018-10-07T07:01:12.381Z,100776.20
2018-10-07T07:03:42.417Z,100780.55
2018-10-07T07:06:12.055Z,100781.89
2018-10-07T07:08:41.369Z,100788.25
2018-10-07T07:11:10.539Z,100798.16
2018-10-07T07:13:39.596Z,100802.82
2018-10-07T07:16:08.422Z,100817.81
2018-10-07T07:18:37.211Z,100832.98
2018-10-07T07:21:06.199Z,100833.11
2018-10-07T07:23:35.100Z,100845.02
2018-10-07T07:26:03.960Z,100857.42
2018-10-07T07:28:33.103Z,100861.45
2018-10-07T07:31:03.060Z,100864.15
2018-10-07T07:33:32.071Z,100866.84
2018-10-07T07:36:02.003Z,100876.65
2018-10-07T07:38:30.890Z,100885.11
2018-10-07T07:40:59.723Z,100892.16
2018-10-07T07:43:28.724Z,100898.99
2018-10-07T07:46:02.439Z,100907.45
2018-10-07T07:48:31.473Z,100920.58
2018-10-07T07:51:00.512Z,100931.53
2018-10-07T07:53:29.302Z,100934.41
2018-10-07T07:55:58.476Z,100953.96
2018-10-07T07:58:27.224Z,100957.23
2018-10-07T08:00:56.110Z,100964.97
2018-10-07T08:03:24.873Z,100957.84
2018-10-07T08:05:54.097Z,100971.86
2018-10-07T08:08:22.925Z,100986.03
2018-10-07T08:10:51.905Z,100983.86
2018-10-07T08:13:20.895Z,100984.54
2018-10-07T08:15:49.700Z,100985.05
2018-10-07T08:18:18.485Z,100997.02
2018-10-07T08:20:47.761Z,100996.41
2018-10-07T08:23:17.141Z,101005.17
2018-10-07T08:25:49.108Z,101023.15
2018-10-07T08:28:18.108Z,101015.48
2018-10-07T08:30:47.002Z,101027.24
2018-10-07T08:33:15.852Z,101023.74
2018-10-07T08:35:44.918Z,101040.41
2018-10-07T08:38:13.768Z,101037.34
2018-10-07T08:40:42.628Z,101037.03
2018-10-07T08:43:11.549Z,101042.31
2018-10-07T08:45:40.307Z,101049.25
2018-10-07T08:48:09.405Z,101052.26
2018-10-07T08:50:38.226Z,101061.05
2018-10-07T08:53:07.312Z,101071.51
2018-10-07T08:55:36.415Z,101070.39
2018-10-07T08:58:05.402Z,101070.16
2018-10-07T09:00:34.197Z,101081.03
2018-10-07T09:03:03.042Z,101089.27
2018-10-07T09:05:31.965Z,101098.27
2018-10-07T09:08:00.745Z,101105.19
2018-10-07T09:13:12.734Z,101110.78
2018-10-07T09:15:50.990Z,101118.18
2018-10-07T09:18:28.325Z,101116.77
2018-10-07T09:21:01.790Z,101126.27
2018-10-07T09:23:33.370Z,101133.25
2018-10-07T09:26:16.568Z,101150.73
2018-10-07T09:28:48.419Z,101153.16
2018-10-07T09:31:22.359Z,101157.06
2018-10-07T09:33:52.474Z,101166.41
2018-10-07T09:36:22.119Z,101169.57
2018-10-07T09:38:51.153Z,101174.11
2018-10-07T09:41:20.424Z,101181.76
2018-10-07T09:43:49.330Z,101180.70
2018-10-07T09:46:18.495Z,101192.34
2018-10-07T09:48:47.339Z,101187.24
2018-10-07T09:51:16.158Z,101202.39
2018-10-07T09:53:45.190Z,101209.90
2018-10-07T09:56:14.807Z,101209.16
2018-10-07T09:58:44.648Z,101209.42
2018-10-07T10:01:13.663Z,101212.53
2018-10-07T10:03:42.868Z,101219.98
2018-10-07T10:06:12.401Z,101224.33
2018-10-07T10:08:41.205Z,101244.06
2018-10-07T10:11:12.328Z,101238.45
2018-10-07T10:13:41.850Z,101246.05
2018-10-07T10:16:10.668Z,101245.80
2018-10-07T10:18:47.097Z,101251.03
2018-10-07T10:21:27.668Z,101260.55
2018-10-07T10:26:10.866Z,101257.44
2018-10-07T10:28:56.732Z,101256.99
2018-10-07T10:32:39.800Z,101262.80
2018-10-07T10:35:35.070Z,101287.56
2018-10-07T10:40:11.862Z,101300.73
2018-10-07T10:42:45.567Z,101307.14
2018-10-07T10:45:26.446Z,101326.25
2018-10-07T10:47:59.537Z,101313.02
2018-10-07T10:51:38.201Z,101316.68
2018-10-07T10:54:18.543Z,101316.53
2018-10-07T10:56:59.585Z,101315.05
2018-10-07T10:59:54.992Z,101313.59
2018-10-07T11:02:32.024Z,101318.23
2018-10-07T11:07:17.365Z,101320.73
2018-10-07T11:10:54.920Z,101321.33
2018-10-07T11:13:30.355Z,101316.25
2018-10-07T11:16:20.634Z,101314.52
2018-10-07T11:19:01.771Z,101326.88
2018-10-07T11:21:43.100Z,101331.92
2018-10-07T11:24:17.088Z,101327.53
2018-10-07T11:26:55.733Z,101323.71
2018-10-07T11:29:32.995Z,101334.13
2018-10-07T11:32:08.985Z,101338.54
2018-10-07T11:35:46.138Z,101335.99
2018-10-07T11:38:20.321Z,101345.58
2018-10-07T11:41:29.511Z,101342.25
2018-10-07T11:44:04.605Z,101350.26
2018-10-07T11:47:08.967Z,101350.70
2018-10-07T11:49:43.170Z,101353.84
2018-10-07T11:52:23.246Z,101348.03
2018-10-07T11:54:54.918Z,101351.47
2018-10-07T11:57:24.138Z,101360.19
2018-10-07T11:59:54.003Z,101366.95
2018-10-07T12:02:23.471Z,101362.59
2018-10-07T12:04:52.906Z,101370.55
2018-10-07T12:07:24.607Z,101373.34
2018-10-07T12:09:53.962Z,101377.38
2018-10-07T12:12:23.108Z,101382.14
2018-10-07T12:14:52.195Z,101385.78
2018-10-07T12:17:21.040Z,101393.83
2018-10-07T12:19:51.687Z,101398.99
2018-10-07T12:22:20.564Z,101390.10
2018-10-07T12:24:49.455Z,101393.04
2018-10-07T12:27:18.256Z,101396.60
2018-10-07T12:29:47.165Z,101398.59
2018-10-07T12:32:16.566Z,101397.88
2018-10-07T12:34:45.657Z,101404.88
2018-10-07T12:37:14.524Z,101396.05
2018-10-07T12:39:43.316Z,101391.52
2018-10-07T12:42:12.531Z,101405.31
2018-10-07T12:44:41.634Z,101408.07
2018-10-07T12:47:10.495Z,101407.27
2018-10-07T12:49:39.589Z,101415.73
2018-10-07T12:52:08.732Z,101421.03
2018-10-07T12:54:37.851Z,101421.17
2018-10-07T12:57:06.982Z,101431.27
2018-10-07T12:59:35.847Z,101432.02
2018-10-07T13:02:05.970Z,101432.86
2018-10-07T13:04:35.505Z,101436.02
2018-10-07T13:07:06.669Z,101436.53
2018-10-07T13:09:35.484Z,101443.17
2018-10-07T13:12:05.623Z,101439.73
2018-10-07T13:14:34.762Z,101443.91
2018-10-07T13:17:05.445Z,101437.94
2018-10-07T13:19:34.925Z,101442.23
2018-10-07T13:22:04.735Z,101442.86
2018-10-07T13:24:33.837Z,101451.65
2018-10-07T13:27:03.500Z,101446.31
2018-10-07T13:29:33.356Z,101456.06
2018-10-07T13:32:02.732Z,101462.06
2018-10-07T13:34:32.844Z,101459.81
2018-10-07T13:37:02.713Z,101469.00
2018-10-07T13:39:32.972Z,101473.86
2018-10-07T13:42:02.579Z,101480.15
2018-10-07T13:44:32.235Z,101482.25
2018-10-07T13:47:01.084Z,101487.81
2018-10-07T13:49:30.281Z,101488.90
2018-10-07T13:51:59.038Z,101497.22
2018-10-07T13:54:28.162Z,101496.09
2018-10-07T13:56:56.991Z,101501.38
2018-10-07T13:59:25.804Z,101502.50
2018-10-07T14:01:54.602Z,101513.28
2018-10-07T14:04:23.558Z,101519.31
2018-10-07T14:06:52.323Z,101522.33
2018-10-07T14:09:21.296Z,101524.77
2018-10-07T14:11:50.773Z,101525.57
2018-10-07T14:14:19.611Z,101531.02
2018-10-07T14:16:48.606Z,101525.11
2018-10-07T14:19:18.080Z,101523.98
2018-10-07T14:21:47.054Z,101521.27
2018-10-07T14:24:15.881Z,101519.59
2018-10-07T14:26:44.963Z,101533.36
2018-10-07T14:29:13.702Z,101531.69
2018-10-07T14:31:42.732Z,101532.38
2018-10-07T14:34:12.439Z,101537.92
2018-10-07T14:36:41.186Z,101538.68
2018-10-07T14:39:13.000Z,101531.30
2018-10-07T14:41:42.034Z,101531.73
2018-10-07T14:44:10.855Z,101541.20
2018-10-07T14:46:39.622Z,101544.27
2018-10-07T14:49:09.577Z,101547.02
2018-10-07T14:51:40.293Z,101558.45
2018-10-07T14:54:10.365Z,101564.14
2018-10-07T14:56:40.340Z,101573.88
2018-10-07T14:59:09.790Z,101578.59
2018-10-07T15:01:38.781Z,101579.58
2018-10-07T15:04:08.037Z,101581.25
2018-10-07T15:06:36.973Z,101582.92
2018-10-07T15:09:08.906Z,101586.23
2018-10-07T15:11:38.022Z,101585.87
2018-10-07T15:14:08.545Z,101586.98
2018-10-07T15:16:38.689Z,101592.03
2018-10-07T15:19:09.325Z,101593.44
2018-10-07T15:21:39.591Z,101598.83
2018-10-07T15:24:08.496Z,101592.41
2018-10-07T15:26:37.332Z,101597.57
2018-10-07T15:29:06.202Z,101596.87
2018-10-07T15:31:35.504Z,101595.58
2018-10-07T15:34:04.228Z,101591.55
2018-10-07T15:36:33.015Z,101603.33
2018-10-07T15:39:01.915Z,101603.34
2018-10-07T15:41:30.806Z,101600.71
2018-10-07T15:44:00.444Z,101603.06
2018-10-07T15:46:29.602Z,101602.17
2018-10-07T15:49:01.636Z,101607.44
2018-10-07T15:51:30.431Z,101612.53
2018-10-07T15:53:59.862Z,101618.24
2018-10-07T15:56:28.650Z,101607.38
2018-10-07T15:58:57.401Z,101615.45
2018-10-07T16:01:26.706Z,101615.63
2018-10-07T16:03:56.611Z,101621.38
2018-10-07T16:06:26.179Z,101623.10
2018-10-07T16:09:00.644Z,101627.47
2018-10-07T16:11:29.911Z,101630.83
2018-10-07T16:14:00.017Z,101636.52
2018-10-07T16:16:29.120Z,101645.92
2018-10-07T16:18:57.968Z,101649.81
2018-10-07T16:21:26.710Z,101654.34
2018-10-07T16:23:55.646Z,101651.33
2018-10-07T16:26:24.594Z,101647.64
2018-10-07T16:28:53.302Z,101650.99
2018-10-07T16:31:23.012Z,101655.70
2018-10-07T16:33:52.585Z,101657.70
2018-10-07T16:36:22.162Z,101656.02
2018-10-07T16:38:51.449Z,101665.59
2018-10-07T16:41:21.118Z,101666.47
2018-10-07T16:43:51.878Z,101674.18
2018-10-07T16:46:22.017Z,101679.04
2018-10-07T16:48:51.016Z,101687.55
2018-10-07T16:51:19.812Z,101684.41
2018-10-07T16:53:48.574Z,101684.91
2018-10-07T16:56:19.687Z,101684.95
2018-10-07T16:58:48.823Z,101697.36
2018-10-07T17:01:17.780Z,101702.39
2018-10-07T17:03:46.724Z,101707.12
2018-10-07T17:06:16.333Z,101713.16
2018-10-07T17:08:45.628Z,101726.59
2018-10-07T17:11:14.565Z,101730.95
2018-10-07T17:13:43.522Z,101735.81
2018-10-07T17:16:12.291Z,101732.83
2018-10-07T17:18:42.079Z,101738.69
2018-10-07T17:21:11.798Z,101746.77
2018-10-07T17:23:40.849Z,101744.08
2018-10-07T17:26:10.110Z,101756.17
2018-10-07T17:28:39.525Z,101754.48
2018-10-07T17:31:11.384Z,101754.16
2018-10-07T17:33:40.436Z,101758.53
2018-10-07T17:36:09.232Z,101763.22
2018-10-07T17:38:38.116Z,101762.71
2018-10-07T17:41:06.966Z,101761.88
2018-10-07T17:43:35.725Z,101767.26
2018-10-07T17:46:04.800Z,101770.94
2018-10-07T17:48:33.984Z,101768.61
2018-10-07T17:51:03.029Z,101772.92
2018-10-07T17:53:31.818Z,101779.31
2018-10-07T17:56:00.874Z,101788.70
2018-10-07T17:58:29.865Z,101788.19
2018-10-07T18:00:58.724Z,101790.04
2018-10-07T18:03:28.099Z,101795.90
2018-10-07T18:05:57.810Z,101802.59
2018-10-07T18:08:28.157Z,101800.24
2018-10-07T18:10:58.213Z,101790.69
2018-10-07T18:13:27.826Z,101794.06
2018-10-07T18:15:57.489Z,101798.41
2018-10-07T18:18:27.219Z,101801.73
2018-10-07T18:20:56.340Z,101803.77
2018-10-07T18:23:26.193Z,101809.45
2018-10-07T18:25:55.733Z,101818.00
2018-10-07T18:28:25.738Z,101813.46
2018-10-07T18:30:54.999Z,101817.48
2018-10-07T18:33:25.359Z,101825.19
2018-10-07T18:35:55.474Z,101822.17
2018-10-07T18:38:25.079Z,101826.19
2018-10-07T18:40:56.199Z,101830.02
2018-10-07T18:43:25.250Z,101831.86
2018-10-07T18:45:55.464Z,101824.86
2018-10-07T18:48:24.317Z,101834.39
2018-10-07T18:50:54.549Z,101839.90
2018-10-07T18:53:24.121Z,101832.52
2018-10-07T18:55:53.790Z,101839.87
2018-10-07T18:58:22.579Z,101843.89
2018-10-07T19:00:51.522Z,101845.05
2018-10-07T19:03:20.298Z,101842.88
2018-10-07T19:05:49.352Z,101841.20
2018-10-07T19:08:18.109Z,101850.55
2018-10-07T19:10:46.973Z,101851.52
2018-10-07T19:13:16.124Z,101856.86
2018-10-07T19:15:45.072Z,101845.51
2018-10-07T19:18:13.874Z,101851.85
2018-10-07T19:20:42.701Z,101859.73
2018-10-07T19:23:12.101Z,101850.70
2018-10-07T19:25:40.874Z,101851.52
2018-10-07T19:28:09.994Z,101861.06
2018-10-07T19:30:38.816Z,101860.87
2018-10-07T19:33:07.833Z,101861.69
2018-10-07T19:35:43.857Z,101857.83
2018-10-07T19:38:12.678Z,101869.67
2018-10-07T19:40:41.472Z,101865.13
2018-10-07T19:43:10.920Z,101861.41
2018-10-07T19:45:41.009Z,101855.34
2018-10-07T19:48:10.541Z,101867.17
2018-10-07T19:50:40.143Z,101859.64
2018-10-07T19:53:09.997Z,101868.63
2018-10-07T19:55:40.929Z,101867.66
2018-10-07T19:58:10.614Z,101866.59
2018-10-07T20:00:41.492Z,101872.28
2018-10-07T20:03:11.633Z,101875.64
2018-10-07T20:05:40.668Z,101876.29
2018-10-07T20:08:10.204Z,101882.97
2018-10-07T20:10:42.672Z,101883.62
2018-10-07T20:13:12.503Z,101888.61
2018-10-07T20:15:41.710Z,101884.90
2018-10-07T20:18:12.086Z,101888.22
2018-10-07T20:20:41.998Z,101886.22
2018-10-07T20:23:11.843Z,101888.20
2018-10-07T20:25:42.465Z,101879.14
2018-10-07T20:28:11.305Z,101880.17
2018-10-07T20:30:40.373Z,101882.84
2018-10-07T20:33:09.151Z,101883.14
2018-10-07T20:35:37.906Z,101898.34
2018-10-07T20:38:07.546Z,101898.47
2018-10-07T20:40:36.461Z,101902.08
2018-10-07T20:43:05.525Z,101905.38
2018-10-07T20:45:34.728Z,101902.34
2018-10-07T20:48:03.636Z,101908.82
2018-10-07T20:50:34.093Z,101911.47
2018-10-07T20:53:02.981Z,101905.92
2018-10-07T20:55:32.523Z,101907.39
2018-10-07T20:58:02.226Z,101918.54
2018-10-07T21:00:31.345Z,101915.88
2018-10-07T21:03:00.500Z,101912.85
2018-10-07T21:05:29.332Z,101914.33
2018-10-07T21:07:58.150Z,101914.83
2018-10-07T21:10:26.864Z,101912.13
2018-10-07T21:12:56.209Z,101915.47
2018-10-07T21:15:25.623Z,101908.77
2018-10-07T21:17:55.162Z,101911.09
2018-10-07T21:20:25.169Z,101912.89
2018-10-07T21:22:54.348Z,101914.37
2018-10-07T21:25:23.527Z,101912.89
2018-10-07T21:27:54.225Z,101917.77
2018-10-07T21:30:23.883Z,101914.39
2018-10-07T21:32:54.501Z,101917.77
2018-10-07T21:35:24.231Z,101920.23
2018-10-07T21:37:54.349Z,101924.55
2018-10-07T21:40:24.679Z,101921.39
2018-10-07T21:42:54.034Z,101920.84
2018-10-07T21:45:24.068Z,101918.66
2018-10-07T21:47:55.007Z,101913.81
2018-10-07T21:50:24.481Z,101920.20
2018-10-07T21:52:54.032Z,101919.65
2018-10-07T21:55:23.052Z,101916.62
2018-10-07T21:57:52.367Z,101912.63
2018-10-07T22:00:22.521Z,101909.64
2018-10-07T22:02:53.220Z,101906.12
2018-10-07T22:05:23.453Z,101912.34
2018-10-07T22:07:52.658Z,101901.30
2018-10-07T22:10:21.664Z,101896.29
2018-10-07T22:12:52.242Z,101892.23
2018-10-07T22:15:22.261Z,101891.88
2018-10-07T22:17:51.310Z,101891.88
2018-10-07T22:20:21.406Z,101879.69
2018-10-07T22:22:50.358Z,101885.17
2018-10-07T22:25:21.102Z,101889.81
2018-10-07T22:27:51.242Z,101886.80
2018-10-07T22:30:21.788Z,101875.98
2018-10-07T22:32:51.423Z,101877.45
2018-10-07T22:35:20.902Z,101873.45
2018-10-07T22:37:50.931Z,101871.13
2018-10-07T22:40:19.961Z,101868.11
2018-10-07T22:42:49.236Z,101871.48
2018-10-07T22:45:19.244Z,101864.75
2018-10-07T22:47:49.516Z,101874.61
2018-10-07T22:50:18.985Z,101873.69
2018-10-07T22:52:48.007Z,101873.27
2018-10-07T22:55:16.902Z,101879.95
2018-10-07T22:57:46.085Z,101882.94
2018-10-07T23:00:15.100Z,101878.58
2018-10-07T23:02:44.827Z,101882.23
2018-10-07T23:05:13.720Z,101882.38
2018-10-07T23:07:42.940Z,101886.52
2018-10-07T23:10:12.648Z,101889.86
2018-10-07T23:12:43.202Z,101891.05
2018-10-07T23:15:13.197Z,101898.70
2018-10-07T23:17:42.821Z,101892.81
2018-10-07T23:20:12.533Z,101892.11
2018-10-07T23:22:42.282Z,101900.82
2018-10-07T23:25:11.877Z,101903.31
2018-10-07T23:27:42.447Z,101898.11
2018-10-07T23:30:12.454Z,101903.52
2018-10-07T23:32:42.216Z,101906.65
2018-10-07T23:35:11.928Z,101908.33
2018-10-07T23:37:41.992Z,101908.72
2018-10-07T23:40:11.780Z,101911.59
2018-10-07T23:42:41.725Z,101914.13
2018-10-07T23:45:11.953Z,101914.47
2018-10-07T23:47:42.166Z,101910.47
2018-10-07T23:50:11.415Z,101912.44
2018-10-07T23:52:40.442Z,101905.20
2018-10-07T23:55:09.810Z,101911.06
2018-10-07T23:57:39.305Z,101914.72
